sensor_id;sensor_type;location;lat;lon;timestamp;temperature;humidity
2062;DHT22;11070;51.336;12.340;2023-12-20T00:00:36;5.40;99.90
2062;DHT22;11070;51.336;12.340;2023-12-20T00:03:03;5.40;99.90
2062;DHT22;11070;51.336;12.340;2023-12-20T00:05:28;5.40;99.90
2062;DHT22;11070;51.336;12.340;2023-12-20T00:07:54;5.40;99.90
2062;DHT22;11070;51.336;12.340;2023-12-20T00:10:20;5.40;99.90
2062;DHT22;11070;51.336;12.340;2023-12-20T00:12:45;5.40;99.90
2062;DHT22;11070;51.336;12.340;2023-12-20T00:15:11;5.30;99.90
2062;DHT22;11070;51.336;12.340;2023-12-20T00:17:37;5.40;99.90
2062;DHT22;11070;51.336;12.340;2023-12-20T00:20:02;5.30;99.90
2062;DHT22;11070;51.336;12.340;2023-12-20T00:22:28;5.30;99.90
2062;DHT22;11070;51.336;12.340;2023-12-20T00:24:54;5.30;99.90
2062;DHT22;11070;51.336;12.340;2023-12-20T00:27:19;5.30;99.90
2062;DHT22;11070;51.336;12.340;2023-12-20T00:29:45;5.30;99.90
2062;DHT22;11070;51.336;12.340;2023-12-20T00:32:15;5.30;99.90
2062;DHT22;11070;51.336;12.340;2023-12-20T00:34:40;5.20;99.90
2062;DHT22;11070;51.336;12.340;2023-12-20T00:37:06;5.30;99.90
2062;DHT22;11070;51.336;12.340;2023-12-20T00:39:31;5.30;99.90
2062;DHT22;11070;51.336;12.340;2023-12-20T00:41:58;5.20;99.90
2062;DHT22;11070;51.336;12.340;2023-12-20T00:44:24;5.20;99.90
2062;DHT22;11070;51.336;12.340;2023-12-20T00:46:49;5.20;99.90
2062;DHT22;11070;51.336;12.340;2023-12-20T00:49:15;5.20;99.90
2062;DHT22;11070;51.336;12.340;2023-12-20T00:51:41;5.20;99.90
2062;DHT22;11070;51.336;12.340;2023-12-20T00:54:06;5.20;99.90
2062;DHT22;11070;51.336;12.340;2023-12-20T00:56:32;5.20;99.90
2062;DHT22;11070;51.336;12.340;2023-12-20T00:58:57;5.20;99.90
2062;DHT22;11070;51.336;12.340;2023-12-20T01:01:23;5.20;99.90
2062;DHT22;11070;51.336;12.340;2023-12-20T01:03:49;5.20;99.90
2062;DHT22;11070;51.336;12.340;2023-12-20T01:06:16;5.20;99.90
2062;DHT22;11070;51.336;12.340;2023-12-20T01:08:42;5.20;99.90
2062;DHT22;11070;51.336;12.340;2023-12-20T01:11:08;5.20;99.90
2062;DHT22;11070;51.336;12.340;2023-12-20T01:13:33;5.20;99.90
2062;DHT22;11070;51.336;12.340;2023-12-20T01:15:59;5.20;99.90
2062;DHT22;11070;51.336;12.340;2023-12-20T01:18:25;5.20;99.90
2062;DHT22;11070;51.336;12.340;2023-12-20T01:20:50;5.20;99.90
2062;DHT22;11070;51.336;12.340;2023-12-20T01:23:16;5.20;99.90
2062;DHT22;11070;51.336;12.340;2023-12-20T01:25:42;5.20;99.90
2062;DHT22;11070;51.336;12.340;2023-12-20T01:28:08;5.20;99.90
2062;DHT22;11070;51.336;12.340;2023-12-20T01:30:34;5.20;99.90
2062;DHT22;11070;51.336;12.340;2023-12-20T01:33:00;5.20;99.90
2062;DHT22;11070;51.336;12.340;2023-12-20T01:35:26;5.20;99.90
2062;DHT22;11070;51.336;12.340;2023-12-20T01:37:52;5.20;99.90
2062;DHT22;11070;51.336;12.340;2023-12-20T01:40:25;5.20;99.90
2062;DHT22;11070;51.336;12.340;2023-12-20T01:43:07;5.20;99.90
2062;DHT22;11070;51.336;12.340;2023-12-20T01:45:34;5.20;99.90
2062;DHT22;11070;51.336;12.340;2023-12-20T01:48:00;5.20;99.90
2062;DHT22;11070;51.336;12.340;2023-12-20T01:50:28;5.20;99.90
2062;DHT22;11070;51.336;12.340;2023-12-20T01:52:55;5.20;99.90
2062;DHT22;11070;51.336;12.340;2023-12-20T01:55:24;5.20;99.90
2062;DHT22;11070;51.336;12.340;2023-12-20T01:57:50;5.20;99.90
2062;DHT22;11070;51.336;12.340;2023-12-20T02:00:17;5.20;99.90
2062;DHT22;11070;51.336;12.340;2023-12-20T02:02:44;5.20;99.90
2062;DHT22;11070;51.336;12.340;2023-12-20T02:05:11;5.20;99.90
2062;DHT22;11070;51.336;12.340;2023-12-20T02:07:37;5.10;99.90
2062;DHT22;11070;51.336;12.340;2023-12-20T02:10:03;5.20;99.90
2062;DHT22;11070;51.336;12.340;2023-12-20T02:12:30;5.10;99.90
2062;DHT22;11070;51.336;12.340;2023-12-20T02:14:55;5.10;99.90
2062;DHT22;11070;51.336;12.340;2023-12-20T02:17:22;5.20;99.90
2062;DHT22;11070;51.336;12.340;2023-12-20T02:19:49;5.10;99.90
2062;DHT22;11070;51.336;12.340;2023-12-20T02:22:14;5.10;99.90
2062;DHT22;11070;51.336;12.340;2023-12-20T02:24:40;5.10;99.90
2062;DHT22;11070;51.336;12.340;2023-12-20T02:27:07;5.10;99.90
2062;DHT22;11070;51.336;12.340;2023-12-20T02:29:34;5.10;99.90
2062;DHT22;11070;51.336;12.340;2023-12-20T02:32:00;5.10;99.90
2062;DHT22;11070;51.336;12.340;2023-12-20T02:34:25;5.10;99.90
2062;DHT22;11070;51.336;12.340;2023-12-20T02:36:51;5.10;99.90
2062;DHT22;11070;51.336;12.340;2023-12-20T02:39:18;5.10;99.90
2062;DHT22;11070;51.336;12.340;2023-12-20T02:41:44;5.10;99.90
2062;DHT22;11070;51.336;12.340;2023-12-20T02:44:10;5.10;99.90
2062;DHT22;11070;51.336;12.340;2023-12-20T02:46:36;5.10;99.90
2062;DHT22;11070;51.336;12.340;2023-12-20T02:49:01;5.10;99.90
2062;DHT22;11070;51.336;12.340;2023-12-20T02:51:27;5.10;99.90
2062;DHT22;11070;51.336;12.340;2023-12-20T02:53:53;5.10;99.90
2062;DHT22;11070;51.336;12.340;2023-12-20T02:56:19;5.10;99.90
2062;DHT22;11070;51.336;12.340;2023-12-20T02:58:44;5.20;99.90
2062;DHT22;11070;51.336;12.340;2023-12-20T03:01:10;5.10;99.90
2062;DHT22;11070;51.336;12.340;2023-12-20T03:03:35;5.10;99.90
2062;DHT22;11070;51.336;12.340;2023-12-20T03:06:01;5.20;99.90
2062;DHT22;11070;51.336;12.340;2023-12-20T03:08:27;5.10;99.90
2062;DHT22;11070;51.336;12.340;2023-12-20T03:10:52;5.20;99.90
2062;DHT22;11070;51.336;12.340;2023-12-20T03:13:19;5.20;99.90
2062;DHT22;11070;51.336;12.340;2023-12-20T03:15:45;5.20;99.90
2062;DHT22;11070;51.336;12.340;2023-12-20T03:18:11;5.20;99.90
2062;DHT22;11070;51.336;12.340;2023-12-20T03:20:37;5.10;99.90
2062;DHT22;11070;51.336;12.340;2023-12-20T03:23:03;5.10;99.90
2062;DHT22;11070;51.336;12.340;2023-12-20T03:25:29;5.10;99.90
2062;DHT22;11070;51.336;12.340;2023-12-20T03:27:54;5.10;99.90
2062;DHT22;11070;51.336;12.340;2023-12-20T03:30:20;5.10;99.90
2062;DHT22;11070;51.336;12.340;2023-12-20T03:32:46;5.20;99.90
2062;DHT22;11070;51.336;12.340;2023-12-20T03:35:12;5.20;99.90
2062;DHT22;11070;51.336;12.340;2023-12-20T03:37:38;5.10;99.90
2062;DHT22;11070;51.336;12.340;2023-12-20T03:40:04;5.20;99.90
2062;DHT22;11070;51.336;12.340;2023-12-20T03:42:30;5.10;99.90
2062;DHT22;11070;51.336;12.340;2023-12-20T03:44:56;5.20;99.90
2062;DHT22;11070;51.336;12.340;2023-12-20T03:47:22;5.20;99.90
2062;DHT22;11070;51.336;12.340;2023-12-20T03:49:47;5.20;99.90
2062;DHT22;11070;51.336;12.340;2023-12-20T03:52:14;5.20;99.90
2062;DHT22;11070;51.336;12.340;2023-12-20T03:54:40;5.20;99.90
2062;DHT22;11070;51.336;12.340;2023-12-20T03:57:07;5.20;99.90
2062;DHT22;11070;51.336;12.340;2023-12-20T03:59:37;5.30;99.90
2062;DHT22;11070;51.336;12.340;2023-12-20T04:02:03;5.20;99.90
2062;DHT22;11070;51.336;12.340;2023-12-20T04:04:29;5.20;99.90
2062;DHT22;11070;51.336;12.340;2023-12-20T04:06:55;5.20;99.90
2062;DHT22;11070;51.336;12.340;2023-12-20T04:09:21;5.20;99.90
2062;DHT22;11070;51.336;12.340;2023-12-20T04:11:46;5.30;99.90
2062;DHT22;11070;51.336;12.340;2023-12-20T04:14:12;5.30;99.90
2062;DHT22;11070;51.336;12.340;2023-12-20T04:16:38;5.30;99.90
2062;DHT22;11070;51.336;12.340;2023-12-20T04:19:04;5.30;99.90
2062;DHT22;11070;51.336;12.340;2023-12-20T04:21:30;5.30;99.90
2062;DHT22;11070;51.336;12.340;2023-12-20T04:23:56;5.30;99.90
2062;DHT22;11070;51.336;12.340;2023-12-20T04:26:21;5.30;99.90
2062;DHT22;11070;51.336;12.340;2023-12-20T04:28:47;5.30;99.90
2062;DHT22;11070;51.336;12.340;2023-12-20T04:31:12;5.30;99.90
2062;DHT22;11070;51.336;12.340;2023-12-20T04:33:39;5.40;99.90
2062;DHT22;11070;51.336;12.340;2023-12-20T04:36:04;5.40;99.90
2062;DHT22;11070;51.336;12.340;2023-12-20T04:38:30;5.40;99.90
2062;DHT22;11070;51.336;12.340;2023-12-20T04:40:56;5.40;99.90
2062;DHT22;11070;51.336;12.340;2023-12-20T04:43:21;5.40;99.90
2062;DHT22;11070;51.336;12.340;2023-12-20T04:45:47;5.40;99.90
2062;DHT22;11070;51.336;12.340;2023-12-20T04:48:13;5.40;99.90
2062;DHT22;11070;51.336;12.340;2023-12-20T04:50:38;5.40;99.90
2062;DHT22;11070;51.336;12.340;2023-12-20T04:53:04;5.40;99.90
2062;DHT22;11070;51.336;12.340;2023-12-20T04:55:30;5.40;99.90
2062;DHT22;11070;51.336;12.340;2023-12-20T04:57:56;5.40;99.90
2062;DHT22;11070;51.336;12.340;2023-12-20T05:00:22;5.50;99.90
2062;DHT22;11070;51.336;12.340;2023-12-20T05:02:47;5.50;99.90
2062;DHT22;11070;51.336;12.340;2023-12-20T05:05:13;5.50;99.90
2062;DHT22;11070;51.336;12.340;2023-12-20T05:07:40;5.50;99.90
2062;DHT22;11070;51.336;12.340;2023-12-20T05:10:06;5.50;99.90
2062;DHT22;11070;51.336;12.340;2023-12-20T05:12:34;5.50;99.90
2062;DHT22;11070;51.336;12.340;2023-12-20T05:15:00;5.50;99.90
2062;DHT22;11070;51.336;12.340;2023-12-20T05:17:25;5.50;99.90
2062;DHT22;11070;51.336;12.340;2023-12-20T05:19:51;5.50;99.90
2062;DHT22;11070;51.336;12.340;2023-12-20T05:22:19;5.50;99.90
2062;DHT22;11070;51.336;12.340;2023-12-20T05:24:45;5.50;99.90
2062;DHT22;11070;51.336;12.340;2023-12-20T05:27:10;5.50;99.90
2062;DHT22;11070;51.336;12.340;2023-12-20T05:29:36;5.50;99.90
2062;DHT22;11070;51.336;12.340;2023-12-20T05:32:02;5.50;99.90
2062;DHT22;11070;51.336;12.340;2023-12-20T05:34:30;5.50;99.90
2062;DHT22;11070;51.336;12.340;2023-12-20T05:36:55;5.60;99.90
2062;DHT22;11070;51.336;12.340;2023-12-20T05:39:21;5.60;99.90
2062;DHT22;11070;51.336;12.340;2023-12-20T05:41:47;5.60;99.90
2062;DHT22;11070;51.336;12.340;2023-12-20T05:44:13;5.60;99.90
2062;DHT22;11070;51.336;12.340;2023-12-20T05:46:39;5.60;99.90
2062;DHT22;11070;51.336;12.340;2023-12-20T05:49:05;5.60;99.90
2062;DHT22;11070;51.336;12.340;2023-12-20T05:51:31;5.60;99.90
2062;DHT22;11070;51.336;12.340;2023-12-20T05:53:57;5.60;99.90
2062;DHT22;11070;51.336;12.340;2023-12-20T05:56:22;5.60;99.90
2062;DHT22;11070;51.336;12.340;2023-12-20T05:58:48;5.50;99.90
2062;DHT22;11070;51.336;12.340;2023-12-20T06:01:16;5.50;99.90
2062;DHT22;11070;51.336;12.340;2023-12-20T06:03:42;5.50;99.90
2062;DHT22;11070;51.336;12.340;2023-12-20T06:06:09;5.50;99.90
2062;DHT22;11070;51.336;12.340;2023-12-20T06:08:35;5.40;99.90
2062;DHT22;11070;51.336;12.340;2023-12-20T06:11:01;5.40;99.90
2062;DHT22;11070;51.336;12.340;2023-12-20T06:13:26;5.40;99.90
2062;DHT22;11070;51.336;12.340;2023-12-20T06:15:54;5.40;99.90
2062;DHT22;11070;51.336;12.340;2023-12-20T06:18:20;5.40;99.90
2062;DHT22;11070;51.336;12.340;2023-12-20T06:20:46;5.40;99.90
2062;DHT22;11070;51.336;12.340;2023-12-20T06:23:11;5.40;99.90
2062;DHT22;11070;51.336;12.340;2023-12-20T06:25:37;5.40;99.90
2062;DHT22;11070;51.336;12.340;2023-12-20T06:28:03;5.40;99.90
2062;DHT22;11070;51.336;12.340;2023-12-20T06:30:29;5.30;99.90
2062;DHT22;11070;51.336;12.340;2023-12-20T06:32:55;5.20;99.90
2062;DHT22;11070;51.336;12.340;2023-12-20T06:35:23;5.20;99.90
2062;DHT22;11070;51.336;12.340;2023-12-20T06:37:48;5.10;99.90
2062;DHT22;11070;51.336;12.340;2023-12-20T06:40:14;5.10;99.90
2062;DHT22;11070;51.336;12.340;2023-12-20T06:42:40;5.10;99.90
2062;DHT22;11070;51.336;12.340;2023-12-20T06:45:06;5.10;99.90
2062;DHT22;11070;51.336;12.340;2023-12-20T06:47:31;5.10;99.90
2062;DHT22;11070;51.336;12.340;2023-12-20T06:49:57;5.10;99.90
2062;DHT22;11070;51.336;12.340;2023-12-20T06:52:23;5.10;99.90
2062;DHT22;11070;51.336;12.340;2023-12-20T06:54:49;5.10;99.90
2062;DHT22;11070;51.336;12.340;2023-12-20T06:57:14;5.10;99.90
2062;DHT22;11070;51.336;12.340;2023-12-20T06:59:43;5.10;99.90
2062;DHT22;11070;51.336;12.340;2023-12-20T07:02:09;5.10;99.90
2062;DHT22;11070;51.336;12.340;2023-12-20T07:04:39;5.10;99.90
2062;DHT22;11070;51.336;12.340;2023-12-20T07:07:05;5.10;99.90
2062;DHT22;11070;51.336;12.340;2023-12-20T07:09:33;5.10;99.90
2062;DHT22;11070;51.336;12.340;2023-12-20T07:11:58;5.10;99.90
2062;DHT22;11070;51.336;12.340;2023-12-20T07:14:24;5.10;99.90
2062;DHT22;11070;51.336;12.340;2023-12-20T07:16:50;5.10;99.90
2062;DHT22;11070;51.336;12.340;2023-12-20T07:19:16;5.10;99.90
2062;DHT22;11070;51.336;12.340;2023-12-20T07:21:41;5.10;99.90
2062;DHT22;11070;51.336;12.340;2023-12-20T07:24:07;5.10;99.90
2062;DHT22;11070;51.336;12.340;2023-12-20T07:26:33;5.20;99.90
2062;DHT22;11070;51.336;12.340;2023-12-20T07:28:59;5.20;99.90
2062;DHT22;11070;51.336;12.340;2023-12-20T07:31:25;5.30;99.90
2062;DHT22;11070;51.336;12.340;2023-12-20T07:33:50;5.40;99.90
2062;DHT22;11070;51.336;12.340;2023-12-20T07:36:16;5.50;99.90
2062;DHT22;11070;51.336;12.340;2023-12-20T07:38:42;5.50;99.90
2062;DHT22;11070;51.336;12.340;2023-12-20T07:41:10;5.50;99.90
2062;DHT22;11070;51.336;12.340;2023-12-20T07:43:36;5.50;99.90
2062;DHT22;11070;51.336;12.340;2023-12-20T07:46:06;5.50;99.90
2062;DHT22;11070;51.336;12.340;2023-12-20T07:48:33;5.40;99.90
2062;DHT22;11070;51.336;12.340;2023-12-20T07:50:59;5.40;99.90
2062;DHT22;11070;51.336;12.340;2023-12-20T07:53:25;5.40;99.90
2062;DHT22;11070;51.336;12.340;2023-12-20T07:55:50;5.40;99.90
2062;DHT22;11070;51.336;12.340;2023-12-20T07:58:18;5.50;99.90
2062;DHT22;11070;51.336;12.340;2023-12-20T08:00:43;5.40;99.90
2062;DHT22;11070;51.336;12.340;2023-12-20T08:03:09;5.40;99.90
2062;DHT22;11070;51.336;12.340;2023-12-20T08:05:35;5.40;99.90
2062;DHT22;11070;51.336;12.340;2023-12-20T08:08:00;5.40;99.90
2062;DHT22;11070;51.336;12.340;2023-12-20T08:10:26;5.40;99.90
2062;DHT22;11070;51.336;12.340;2023-12-20T08:12:55;5.50;99.90
2062;DHT22;11070;51.336;12.340;2023-12-20T08:15:20;5.50;99.90
2062;DHT22;11070;51.336;12.340;2023-12-20T08:17:46;5.50;99.90
2062;DHT22;11070;51.336;12.340;2023-12-20T08:20:12;5.60;99.90
2062;DHT22;11070;51.336;12.340;2023-12-20T08:22:37;5.60;99.90
2062;DHT22;11070;51.336;12.340;2023-12-20T08:25:03;5.70;99.90
2062;DHT22;11070;51.336;12.340;2023-12-20T08:27:29;5.80;99.90
2062;DHT22;11070;51.336;12.340;2023-12-20T08:29:57;5.90;99.90
2062;DHT22;11070;51.336;12.340;2023-12-20T08:32:25;5.90;99.90
2062;DHT22;11070;51.336;12.340;2023-12-20T08:34:52;5.90;99.90
2062;DHT22;11070;51.336;12.340;2023-12-20T08:37:17;6.50;99.90
2062;DHT22;11070;51.336;12.340;2023-12-20T08:39:43;7.10;99.90
2062;DHT22;11070;51.336;12.340;2023-12-20T08:42:09;7.50;99.90
2062;DHT22;11070;51.336;12.340;2023-12-20T08:44:35;7.40;99.90
2062;DHT22;11070;51.336;12.340;2023-12-20T08:47:00;7.60;99.90
2062;DHT22;11070;51.336;12.340;2023-12-20T08:49:27;7.30;99.90
2062;DHT22;11070;51.336;12.340;2023-12-20T08:51:53;6.90;99.90
2062;DHT22;11070;51.336;12.340;2023-12-20T08:54:19;6.50;99.90
2062;DHT22;11070;51.336;12.340;2023-12-20T08:56:45;6.40;99.90
2062;DHT22;11070;51.336;12.340;2023-12-20T08:59:11;6.20;99.90
2062;DHT22;11070;51.336;12.340;2023-12-20T09:01:37;6.20;99.90
2062;DHT22;11070;51.336;12.340;2023-12-20T09:04:03;6.10;99.90
2062;DHT22;11070;51.336;12.340;2023-12-20T09:06:29;6.20;99.90
2062;DHT22;11070;51.336;12.340;2023-12-20T09:08:54;6.80;99.90
2062;DHT22;11070;51.336;12.340;2023-12-20T09:11:20;7.50;99.90
2062;DHT22;11070;51.336;12.340;2023-12-20T09:13:46;7.80;99.90
2062;DHT22;11070;51.336;12.340;2023-12-20T09:16:11;8.40;99.90
2062;DHT22;11070;51.336;12.340;2023-12-20T09:18:38;8.30;99.90
2062;DHT22;11070;51.336;12.340;2023-12-20T09:21:04;7.80;99.90
2062;DHT22;11070;51.336;12.340;2023-12-20T09:23:29;7.60;99.90
2062;DHT22;11070;51.336;12.340;2023-12-20T09:25:55;7.30;99.90
2062;DHT22;11070;51.336;12.340;2023-12-20T09:28:21;7.00;99.90
2062;DHT22;11070;51.336;12.340;2023-12-20T09:30:46;6.70;99.90
2062;DHT22;11070;51.336;12.340;2023-12-20T09:33:13;6.60;99.90
2062;DHT22;11070;51.336;12.340;2023-12-20T09:35:39;6.60;99.90
2062;DHT22;11070;51.336;12.340;2023-12-20T09:38:05;6.60;99.90
2062;DHT22;11070;51.336;12.340;2023-12-20T09:40:32;7.60;99.90
2062;DHT22;11070;51.336;12.340;2023-12-20T09:43:11;8.80;99.90
2062;DHT22;11070;51.336;12.340;2023-12-20T09:45:38;10.00;99.90
2062;DHT22;11070;51.336;12.340;2023-12-20T09:48:06;9.90;99.90
2062;DHT22;11070;51.336;12.340;2023-12-20T09:50:32;9.60;99.90
2062;DHT22;11070;51.336;12.340;2023-12-20T09:53:01;9.90;99.90
2062;DHT22;11070;51.336;12.340;2023-12-20T09:55:29;9.90;99.90
2062;DHT22;11070;51.336;12.340;2023-12-20T09:57:55;10.00;99.90
2062;DHT22;11070;51.336;12.340;2023-12-20T10:00:21;9.70;99.90
2062;DHT22;11070;51.336;12.340;2023-12-20T10:02:57;9.00;99.90
2062;DHT22;11070;51.336;12.340;2023-12-20T10:07:52;9.40;99.90
2062;DHT22;11070;51.336;12.340;2023-12-20T10:10:18;9.70;99.90
2062;DHT22;11070;51.336;12.340;2023-12-20T10:13:02;10.80;99.90
2062;DHT22;11070;51.336;12.340;2023-12-20T10:15:28;11.30;99.90
2062;DHT22;11070;51.336;12.340;2023-12-20T10:17:54;11.00;99.90
2062;DHT22;11070;51.336;12.340;2023-12-20T10:20:20;10.70;99.90
2062;DHT22;11070;51.336;12.340;2023-12-20T10:22:46;10.10;99.90
2062;DHT22;11070;51.336;12.340;2023-12-20T10:25:12;9.60;99.90
2062;DHT22;11070;51.336;12.340;2023-12-20T10:27:38;9.30;99.90
2062;DHT22;11070;51.336;12.340;2023-12-20T10:30:04;9.90;99.90
2062;DHT22;11070;51.336;12.340;2023-12-20T10:32:31;10.00;99.90
2062;DHT22;11070;51.336;12.340;2023-12-20T10:34:57;9.10;99.90
2062;DHT22;11070;51.336;12.340;2023-12-20T10:37:24;9.50;99.90
2062;DHT22;11070;51.336;12.340;2023-12-20T10:39:52;9.40;99.90
2062;DHT22;11070;51.336;12.340;2023-12-20T10:42:22;9.00;99.90
2062;DHT22;11070;51.336;12.340;2023-12-20T10:44:49;8.30;99.90
2062;DHT22;11070;51.336;12.340;2023-12-20T10:47:15;8.00;99.90
2062;DHT22;11070;51.336;12.340;2023-12-20T10:49:42;7.90;99.90
2062;DHT22;11070;51.336;12.340;2023-12-20T10:52:09;7.50;99.90
2062;DHT22;11070;51.336;12.340;2023-12-20T10:54:36;7.50;99.90
2062;DHT22;11070;51.336;12.340;2023-12-20T10:57:05;7.50;99.90
2062;DHT22;11070;51.336;12.340;2023-12-20T10:59:33;7.50;99.90
2062;DHT22;11070;51.336;12.340;2023-12-20T11:02:04;7.60;99.90
2062;DHT22;11070;51.336;12.340;2023-12-20T11:04:44;7.70;99.90
2062;DHT22;11070;51.336;12.340;2023-12-20T11:07:39;7.70;99.90
2062;DHT22;11070;51.336;12.340;2023-12-20T11:10:20;7.70;99.90
2062;DHT22;11070;51.336;12.340;2023-12-20T11:13:20;7.70;99.90
2062;DHT22;11070;51.336;12.340;2023-12-20T11:15:47;8.50;99.90
2062;DHT22;11070;51.336;12.340;2023-12-20T11:18:12;8.50;99.90
2062;DHT22;11070;51.336;12.340;2023-12-20T11:20:40;8.00;99.90
2062;DHT22;11070;51.336;12.340;2023-12-20T11:23:06;7.90;99.90
2062;DHT22;11070;51.336;12.340;2023-12-20T11:25:49;7.90;99.90
2062;DHT22;11070;51.336;12.340;2023-12-20T11:28:14;7.70;99.90
2062;DHT22;11070;51.336;12.340;2023-12-20T11:31:01;7.70;99.90
2062;DHT22;11070;51.336;12.340;2023-12-20T11:33:30;7.50;99.90
2062;DHT22;11070;51.336;12.340;2023-12-20T11:35:57;7.50;99.90
2062;DHT22;11070;51.336;12.340;2023-12-20T11:38:25;7.50;99.90
2062;DHT22;11070;51.336;12.340;2023-12-20T11:40:51;7.40;99.90
2062;DHT22;11070;51.336;12.340;2023-12-20T11:43:38;7.40;99.90
2062;DHT22;11070;51.336;12.340;2023-12-20T11:46:09;7.30;99.90
2062;DHT22;11070;51.336;12.340;2023-12-20T11:48:37;7.20;99.90
2062;DHT22;11070;51.336;12.340;2023-12-20T11:51:12;7.20;99.90
2062;DHT22;11070;51.336;12.340;2023-12-20T11:53:39;7.20;99.90
2062;DHT22;11070;51.336;12.340;2023-12-20T11:56:08;7.20;99.90
2062;DHT22;11070;51.336;12.340;2023-12-20T11:58:36;7.20;99.90
2062;DHT22;11070;51.336;12.340;2023-12-20T12:01:02;7.20;99.90
2062;DHT22;11070;51.336;12.340;2023-12-20T12:03:28;7.20;99.90
2062;DHT22;11070;51.336;12.340;2023-12-20T12:05:53;7.30;99.90
2062;DHT22;11070;51.336;12.340;2023-12-20T12:08:19;7.30;99.90
2062;DHT22;11070;51.336;12.340;2023-12-20T12:10:45;7.20;99.90
2062;DHT22;11070;51.336;12.340;2023-12-20T12:13:11;7.20;99.90
2062;DHT22;11070;51.336;12.340;2023-12-20T12:15:37;7.30;99.90
2062;DHT22;11070;51.336;12.340;2023-12-20T12:18:03;7.30;99.90
2062;DHT22;11070;51.336;12.340;2023-12-20T12:20:30;7.30;99.90
2062;DHT22;11070;51.336;12.340;2023-12-20T12:25:25;7.30;99.90
2062;DHT22;11070;51.336;12.340;2023-12-20T12:27:51;7.30;99.90
2062;DHT22;11070;51.336;12.340;2023-12-20T12:30:17;7.30;99.90
2062;DHT22;11070;51.336;12.340;2023-12-20T12:32:46;7.60;99.90
2062;DHT22;11070;51.336;12.340;2023-12-20T12:35:12;7.50;99.90
2062;DHT22;11070;51.336;12.340;2023-12-20T12:37:39;7.50;99.90
2062;DHT22;11070;51.336;12.340;2023-12-20T12:40:10;7.50;99.90
2062;DHT22;11070;51.336;12.340;2023-12-20T12:42:37;7.40;99.90
2062;DHT22;11070;51.336;12.340;2023-12-20T12:45:03;7.50;99.90
2062;DHT22;11070;51.336;12.340;2023-12-20T12:47:30;7.60;99.90
2062;DHT22;11070;51.336;12.340;2023-12-20T12:49:56;7.70;99.90
2062;DHT22;11070;51.336;12.340;2023-12-20T12:52:22;8.00;99.90
2062;DHT22;11070;51.336;12.340;2023-12-20T12:54:48;8.00;99.90
2062;DHT22;11070;51.336;12.340;2023-12-20T12:57:15;8.30;99.90
2062;DHT22;11070;51.336;12.340;2023-12-20T12:59:42;8.90;99.90
2062;DHT22;11070;51.336;12.340;2023-12-20T13:02:08;9.30;99.90
2062;DHT22;11070;51.336;12.340;2023-12-20T13:04:33;9.70;99.90
2062;DHT22;11070;51.336;12.340;2023-12-20T13:06:59;9.90;99.90
2062;DHT22;11070;51.336;12.340;2023-12-20T13:09:25;10.00;99.90
2062;DHT22;11070;51.336;12.340;2023-12-20T13:11:51;9.80;99.90
2062;DHT22;11070;51.336;12.340;2023-12-20T13:14:17;9.30;99.90
2062;DHT22;11070;51.336;12.340;2023-12-20T13:16:42;8.80;99.90
2062;DHT22;11070;51.336;12.340;2023-12-20T13:19:08;9.00;99.90
2062;DHT22;11070;51.336;12.340;2023-12-20T13:21:35;9.00;99.90
2062;DHT22;11070;51.336;12.340;2023-12-20T13:24:01;9.20;99.90
2062;DHT22;11070;51.336;12.340;2023-12-20T13:26:27;9.40;99.90
2062;DHT22;11070;51.336;12.340;2023-12-20T13:28:54;9.70;99.90
2062;DHT22;11070;51.336;12.340;2023-12-20T13:31:20;9.80;99.90
2062;DHT22;11070;51.336;12.340;2023-12-20T13:33:46;10.10;99.90
2062;DHT22;11070;51.336;12.340;2023-12-20T13:36:12;9.90;99.90
2062;DHT22;11070;51.336;12.340;2023-12-20T13:38:38;9.90;99.90
2062;DHT22;11070;51.336;12.340;2023-12-20T13:41:03;9.80;99.90
2062;DHT22;11070;51.336;12.340;2023-12-20T13:43:31;9.60;99.90
2062;DHT22;11070;51.336;12.340;2023-12-20T13:45:58;9.40;99.90
2062;DHT22;11070;51.336;12.340;2023-12-20T13:48:24;9.60;99.90
2062;DHT22;11070;51.336;12.340;2023-12-20T13:50:50;9.40;99.90
2062;DHT22;11070;51.336;12.340;2023-12-20T13:53:15;9.00;99.90
2062;DHT22;11070;51.336;12.340;2023-12-20T13:55:41;8.90;99.90
2062;DHT22;11070;51.336;12.340;2023-12-20T13:58:07;9.00;99.90
2062;DHT22;11070;51.336;12.340;2023-12-20T14:00:33;9.10;99.90
2062;DHT22;11070;51.336;12.340;2023-12-20T14:02:58;9.00;99.90
2062;DHT22;11070;51.336;12.340;2023-12-20T14:05:24;8.90;99.90
2062;DHT22;11070;51.336;12.340;2023-12-20T14:07:50;9.00;99.90
2062;DHT22;11070;51.336;12.340;2023-12-20T14:10:16;9.20;99.90
2062;DHT22;11070;51.336;12.340;2023-12-20T14:12:42;8.80;99.90
2062;DHT22;11070;51.336;12.340;2023-12-20T14:15:09;8.50;99.90
2062;DHT22;11070;51.336;12.340;2023-12-20T14:17:39;8.20;99.90
2062;DHT22;11070;51.336;12.340;2023-12-20T14:20:06;7.90;99.90
2062;DHT22;11070;51.336;12.340;2023-12-20T14:22:35;7.60;99.90
2062;DHT22;11070;51.336;12.340;2023-12-20T14:25:01;7.50;99.90
2062;DHT22;11070;51.336;12.340;2023-12-20T14:27:28;7.40;99.90
2062;DHT22;11070;51.336;12.340;2023-12-20T14:29:54;7.40;99.90
2062;DHT22;11070;51.336;12.340;2023-12-20T14:32:20;7.30;99.90
2062;DHT22;11070;51.336;12.340;2023-12-20T14:34:46;7.30;99.90
2062;DHT22;11070;51.336;12.340;2023-12-20T14:37:12;7.30;99.90
2062;DHT22;11070;51.336;12.340;2023-12-20T14:39:37;7.30;99.90
2062;DHT22;11070;51.336;12.340;2023-12-20T14:42:10;7.30;99.90
2062;DHT22;11070;51.336;12.340;2023-12-20T14:44:43;7.20;99.90
2062;DHT22;11070;51.336;12.340;2023-12-20T14:47:08;7.20;99.90
2062;DHT22;11070;51.336;12.340;2023-12-20T14:49:34;7.20;99.90
2062;DHT22;11070;51.336;12.340;2023-12-20T14:52:01;7.20;99.90
2062;DHT22;11070;51.336;12.340;2023-12-20T14:54:26;7.20;99.90
2062;DHT22;11070;51.336;12.340;2023-12-20T14:56:52;7.20;99.90
2062;DHT22;11070;51.336;12.340;2023-12-20T14:59:17;7.20;99.90
2062;DHT22;11070;51.336;12.340;2023-12-20T15:01:44;7.20;99.90
2062;DHT22;11070;51.336;12.340;2023-12-20T15:04:10;7.20;99.90
2062;DHT22;11070;51.336;12.340;2023-12-20T15:06:36;7.20;99.90
2062;DHT22;11070;51.336;12.340;2023-12-20T15:09:02;7.20;99.90
2062;DHT22;11070;51.336;12.340;2023-12-20T15:11:35;7.20;99.90
2062;DHT22;11070;51.336;12.340;2023-12-20T15:14:01;7.10;99.90
2062;DHT22;11070;51.336;12.340;2023-12-20T15:16:28;7.10;99.90
2062;DHT22;11070;51.336;12.340;2023-12-20T15:18:54;7.10;99.90
2062;DHT22;11070;51.336;12.340;2023-12-20T15:21:20;7.10;99.90
2062;DHT22;11070;51.336;12.340;2023-12-20T15:23:55;7.10;99.90
2062;DHT22;11070;51.336;12.340;2023-12-20T15:26:33;7.00;99.90
2062;DHT22;11070;51.336;12.340;2023-12-20T15:28:59;7.00;99.90
2062;DHT22;11070;51.336;12.340;2023-12-20T15:31:27;7.00;99.90
2062;DHT22;11070;51.336;12.340;2023-12-20T15:33:53;7.00;99.90
2062;DHT22;11070;51.336;12.340;2023-12-20T15:36:19;7.00;99.90
2062;DHT22;11070;51.336;12.340;2023-12-20T15:38:45;7.00;99.90
2062;DHT22;11070;51.336;12.340;2023-12-20T15:41:20;7.00;99.90
2062;DHT22;11070;51.336;12.340;2023-12-20T15:43:46;7.00;99.90
2062;DHT22;11070;51.336;12.340;2023-12-20T15:46:12;6.90;99.90